createdAt,value
2023-02-11T00:01:35.501Z,74.86
2023-02-11T00:04:07.388Z,74.59
2023-02-11T00:06:36.291Z,74.46
2023-02-11T00:09:05.626Z,74.44
2023-02-11T00:11:34.302Z,74.47
2023-02-11T00:14:05.610Z,73.48
2023-02-11T00:16:33.973Z,73.40
2023-02-11T00:19:06.376Z,73.52
2023-02-11T00:21:35.305Z,73.67
2023-02-11T00:24:04.309Z,73.69
2023-02-11T00:26:35.323Z,74.54
2023-02-11T00:29:04.670Z,74.52
2023-02-11T00:31:34.041Z,74.36
2023-02-11T00:34:02.917Z,74.47
2023-02-11T00:36:31.429Z,74.61
2023-02-11T00:39:00.799Z,74.61
2023-02-11T00:41:30.509Z,74.82
2023-02-11T00:44:02.317Z,74.69
2023-02-11T00:46:30.828Z,74.61
2023-02-11T00:48:59.348Z,74.56
2023-02-11T00:51:29.217Z,74.68
2023-02-11T00:53:57.746Z,74.83
2023-02-11T00:56:26.045Z,74.92
2023-02-11T00:58:54.581Z,74.85
2023-02-11T01:01:23.476Z,74.73
2023-02-11T01:03:52.058Z,74.63
2023-02-11T01:06:20.740Z,74.48
2023-02-11T01:08:49.126Z,74.34
2023-02-11T01:11:19.880Z,74.24
2023-02-11T01:13:51.379Z,74.43
2023-02-11T01:16:22.329Z,74.49
2023-02-11T01:18:50.747Z,74.74
2023-02-11T01:21:19.745Z,75.22
2023-02-11T01:23:48.444Z,74.84
2023-02-11T01:26:17.033Z,74.79
2023-02-11T01:28:45.582Z,74.40
2023-02-11T01:31:14.954Z,74.48
2023-02-11T01:33:43.464Z,74.64
2023-02-11T01:36:12.964Z,74.45
2023-02-11T01:38:41.971Z,73.80
2023-02-11T01:41:13.113Z,73.74
2023-02-11T01:43:48.992Z,74.29
2023-02-11T01:46:36.606Z,74.76
2023-02-11T01:49:11.070Z,74.07
2023-02-11T01:51:47.776Z,74.32
2023-02-11T01:54:41.087Z,74.35
2023-02-11T01:57:25.865Z,74.15
2023-02-11T02:00:24.439Z,74.23
2023-02-11T02:03:14.808Z,74.30
2023-02-11T02:06:02.207Z,74.30
2023-02-11T02:08:47.288Z,74.04
2023-02-11T02:11:15.967Z,73.53
2023-02-11T02:13:45.472Z,73.34
2023-02-11T02:16:17.144Z,73.33
2023-02-11T02:19:25.142Z,73.73
2023-02-11T02:22:24.435Z,73.28
2023-02-11T02:25:03.187Z,73.02
2023-02-11T02:27:44.772Z,73.29
2023-02-11T02:30:37.520Z,73.69
2023-02-11T02:33:23.020Z,74.07
2023-02-11T02:36:20.942Z,73.98
2023-02-11T02:39:01.205Z,74.03
2023-02-11T02:41:33.754Z,74.14
2023-02-11T02:44:02.624Z,74.27
2023-02-11T02:46:34.561Z,73.91
2023-02-11T02:49:03.927Z,73.85
2023-02-11T02:51:46.028Z,73.67
2023-02-11T02:54:28.640Z,73.68
2023-02-11T02:57:19.955Z,73.47
2023-02-11T03:00:09.021Z,73.15
2023-02-11T03:02:52.451Z,73.17
2023-02-11T03:05:45.505Z,72.81
2023-02-11T03:08:35.130Z,72.91
2023-02-11T03:11:06.344Z,72.93
2023-02-11T03:13:37.181Z,72.72
2023-02-11T03:16:14.082Z,72.32
2023-02-11T03:18:44.468Z,72.40
2023-02-11T03:21:14.580Z,72.15
2023-02-11T03:23:51.162Z,72.14
2023-02-11T03:26:35.001Z,71.90
2023-02-11T03:29:37.065Z,71.65
2023-02-11T03:32:25.674Z,71.66
2023-02-11T03:35:16.719Z,71.40
2023-02-11T03:37:53.913Z,71.36
2023-02-11T03:40:26.667Z,70.77
2023-02-11T03:43:03.688Z,71.00
2023-02-11T03:45:32.307Z,70.79
2023-02-11T03:48:05.165Z,70.37
2023-02-11T03:50:36.468Z,70.51
2023-02-11T03:53:06.311Z,70.95
2023-02-11T03:55:38.989Z,71.01
2023-02-11T03:58:08.004Z,70.81
2023-02-11T04:00:39.930Z,71.18
2023-02-11T04:03:10.598Z,70.68
2023-02-11T04:05:39.463Z,70.56
2023-02-11T04:08:08.146Z,70.12
2023-02-11T04:10:36.594Z,69.30
2023-02-11T04:13:05.120Z,69.04
2023-02-11T04:15:33.610Z,68.80
2023-02-11T04:18:03.724Z,68.71
2023-02-11T04:20:32.297Z,68.69
2023-02-11T04:23:00.889Z,68.64
2023-02-11T04:25:29.776Z,68.45
2023-02-11T04:27:58.389Z,68.34
2023-02-11T04:30:27.140Z,68.29
2023-02-11T04:32:55.624Z,68.70
2023-02-11T04:35:24.112Z,68.93
2023-02-11T04:37:52.889Z,68.99
2023-02-11T04:40:21.472Z,69.13
2023-02-11T04:42:50.694Z,69.45
2023-02-11T04:45:19.062Z,68.96
2023-02-11T04:47:47.531Z,68.45
2023-02-11T04:50:15.978Z,67.85
2023-02-11T04:52:44.705Z,68.23
2023-02-11T04:55:13.699Z,68.56
2023-02-11T04:57:42.609Z,68.96
2023-02-11T05:00:14.609Z,68.87
2023-02-11T05:02:44.475Z,69.42
2023-02-11T05:05:12.956Z,69.25
2023-02-11T05:07:41.416Z,69.13
2023-02-11T05:10:10.106Z,68.58
2023-02-11T05:12:38.393Z,68.31
2023-02-11T05:15:07.473Z,68.58
2023-02-11T05:17:35.868Z,68.70
2023-02-11T05:20:04.805Z,68.46
2023-02-11T05:22:33.165Z,68.57
2023-02-11T05:25:01.624Z,67.66
2023-02-11T05:27:30.292Z,67.92
2023-02-11T05:30:01.561Z,68.08
2023-02-11T05:32:31.195Z,67.69
2023-02-11T05:35:00.281Z,67.06
2023-02-11T05:37:30.767Z,67.16
2023-02-11T05:39:59.568Z,67.23
2023-02-11T05:42:28.187Z,67.11
2023-02-11T05:44:56.865Z,67.03
2023-02-11T05:47:25.474Z,66.45
2023-02-11T05:49:55.628Z,65.88
2023-02-11T05:52:25.439Z,66.18
2023-02-11T05:54:54.613Z,66.30
2023-02-11T05:57:23.675Z,65.52
2023-02-11T05:59:55.149Z,65.51
2023-02-11T06:02:23.792Z,65.51
2023-02-11T06:04:53.178Z,66.03
2023-02-11T06:07:21.550Z,65.63
2023-02-11T06:09:50.550Z,65.32
2023-02-11T06:12:20.082Z,65.17
2023-02-11T06:14:49.458Z,65.47
2023-02-11T06:20:58.546Z,66.57
2023-02-11T06:23:30.003Z,67.27
2023-02-11T06:26:06.055Z,66.90
2023-02-11T06:28:36.268Z,66.68
2023-02-11T06:31:07.024Z,66.97
2023-02-11T06:33:36.383Z,66.80
2023-02-11T06:36:13.372Z,66.79
2023-02-11T06:38:42.865Z,66.60
2023-02-11T06:41:12.601Z,66.36
2023-02-11T06:43:41.780Z,65.36
2023-02-11T06:46:10.575Z,65.52
2023-02-11T06:48:41.664Z,65.50
2023-02-11T06:51:14.194Z,65.62
2023-02-11T06:53:46.548Z,65.60
2023-02-11T06:56:20.968Z,65.63
2023-02-11T06:58:55.071Z,65.61
2023-02-11T07:01:25.432Z,65.38
2023-02-11T07:03:54.707Z,65.45
2023-02-11T07:06:28.235Z,65.79
2023-02-11T07:08:58.197Z,66.18
2023-02-11T07:11:29.379Z,65.65
2023-02-11T07:14:08.529Z,65.71
2023-02-11T07:16:39.713Z,65.47
2023-02-11T07:19:08.309Z,65.16
2023-02-11T07:21:37.027Z,64.70
2023-02-11T07:24:11.265Z,64.38
2023-02-11T07:26:41.133Z,63.89
2023-02-11T07:29:09.938Z,63.63
2023-02-11T07:31:38.718Z,63.52
2023-02-11T07:34:07.395Z,63.51
2023-02-11T07:36:36.280Z,63.66
2023-02-11T07:39:04.944Z,63.51
2023-02-11T07:41:38.108Z,63.68
2023-02-11T07:44:11.468Z,63.17
2023-02-11T07:46:45.144Z,63.07
2023-02-11T07:49:13.933Z,63.25
2023-02-11T07:51:42.536Z,62.81
2023-02-11T07:54:12.783Z,62.63
2023-02-11T07:56:41.340Z,62.83
2023-02-11T07:59:11.961Z,62.34
2023-02-11T08:01:43.999Z,61.77
2023-02-11T08:04:14.045Z,61.44
2023-02-11T08:06:44.469Z,60.66
2023-02-11T08:09:17.408Z,58.70
2023-02-11T08:11:48.134Z,57.30
2023-02-11T08:14:17.486Z,58.24
2023-02-11T08:16:50.796Z,58.20
2023-02-11T08:19:24.720Z,58.00
2023-02-11T08:21:57.117Z,58.60
2023-02-11T08:24:25.806Z,58.99
2023-02-11T08:26:56.852Z,57.96
2023-02-11T08:29:27.839Z,58.22
2023-02-11T08:31:57.046Z,59.04
2023-02-11T08:34:25.709Z,58.47
2023-02-11T08:36:55.862Z,58.22
2023-02-11T08:39:32.252Z,57.74
2023-02-11T08:42:02.927Z,57.82
2023-02-11T08:44:31.510Z,58.83
2023-02-11T08:47:00.410Z,57.43
2023-02-11T08:49:30.959Z,57.55
2023-02-11T08:52:04.143Z,59.02
2023-02-11T08:54:33.130Z,58.29
2023-02-11T08:57:06.406Z,56.94
2023-02-11T08:59:37.772Z,57.09
2023-02-11T09:02:08.067Z,57.07
2023-02-11T09:04:37.159Z,56.53
2023-02-11T09:07:08.030Z,57.42
2023-02-11T09:09:37.104Z,56.86
2023-02-11T09:12:06.353Z,56.56
2023-02-11T09:14:35.398Z,54.65
2023-02-11T09:17:04.450Z,55.94
2023-02-11T09:19:33.303Z,57.60
2023-02-11T09:22:08.478Z,54.38
2023-02-11T09:24:37.807Z,54.50
2023-02-11T09:27:11.701Z,54.85
2023-02-11T09:29:43.900Z,52.04
2023-02-11T09:32:12.747Z,52.09
2023-02-11T09:34:41.883Z,51.01
2023-02-11T09:37:10.978Z,54.39
2023-02-11T09:39:39.890Z,53.25
2023-02-11T09:42:11.837Z,50.13
2023-02-11T09:44:45.133Z,47.58
2023-02-11T09:47:32.142Z,49.08
2023-02-11T09:50:10.765Z,49.46
2023-02-11T09:52:48.085Z,50.42
2023-02-11T09:55:27.090Z,47.96
2023-02-11T09:58:00.935Z,49.76
2023-02-11T10:00:52.736Z,50.31
2023-02-11T10:03:36.264Z,47.16
2023-02-11T10:06:31.249Z,46.73
2023-02-11T10:09:11.109Z,44.73
2023-02-11T10:12:03.960Z,45.43
2023-02-11T10:14:54.255Z,43.40
2023-02-11T10:17:37.071Z,44.57
2023-02-11T10:20:32.070Z,45.51
2023-02-11T10:23:09.155Z,45.86
2023-02-11T10:25:46.476Z,44.68
2023-02-11T10:28:19.526Z,43.82
2023-02-11T10:31:15.423Z,44.30
2023-02-11T10:34:00.316Z,44.07
2023-02-11T10:36:39.219Z,42.19
2023-02-11T10:39:20.628Z,41.99
2023-02-11T10:42:05.926Z,41.73
2023-02-11T10:44:40.013Z,42.73
2023-02-11T10:47:28.756Z,42.79
2023-02-11T10:50:04.347Z,44.32
2023-02-11T10:52:32.797Z,41.45
2023-02-11T10:55:16.944Z,41.93
2023-02-11T10:57:59.617Z,41.93
2023-02-11T11:00:41.195Z,42.45
2023-02-11T11:03:22.006Z,42.22
2023-02-11T11:05:58.785Z,41.24
2023-02-11T11:08:47.926Z,40.69
2023-02-11T11:11:20.091Z,41.49
2023-02-11T11:13:54.522Z,41.52
2023-02-11T11:16:28.325Z,42.42
2023-02-11T11:19:06.844Z,41.72
2023-02-11T11:21:41.497Z,41.69
2023-02-11T11:24:31.903Z,42.41
2023-02-11T11:27:06.348Z,43.07
2023-02-11T18:45:51.096Z,78.68
2023-02-11T18:48:20.498Z,80.55
2023-02-11T18:50:49.176Z,80.95
2023-02-11T18:53:17.852Z,80.73
2023-02-11T18:55:47.625Z,79.55
2023-02-11T18:58:16.348Z,80.37
2023-02-11T19:00:47.857Z,80.20
2023-02-11T19:03:18.227Z,79.30
2023-02-11T19:05:51.222Z,79.42
2023-02-11T19:08:19.960Z,78.76
2023-02-11T19:10:50.066Z,79.57
2023-02-11T19:13:34.265Z,81.22
2023-02-11T19:16:08.197Z,81.09
2023-02-11T19:18:39.137Z,81.13
2023-02-11T19:21:11.334Z,82.62
2023-02-11T19:23:40.176Z,82.60
2023-02-11T19:26:08.885Z,82.88
2023-02-11T19:28:40.055Z,82.11
2023-02-11T19:31:09.881Z,81.49
2023-02-11T19:33:38.493Z,78.88
2023-02-11T19:36:08.213Z,78.40
2023-02-11T19:38:39.287Z,76.81
2023-02-11T19:41:08.013Z,77.26
2023-02-11T19:43:37.124Z,77.87
2023-02-11T19:46:05.992Z,76.37
2023-02-11T19:48:35.003Z,77.18
2023-02-11T19:51:12.107Z,75.99
2023-02-11T19:53:42.026Z,72.78
2023-02-11T19:56:11.309Z,72.72
2023-02-11T19:58:42.280Z,75.75
2023-02-11T20:01:14.608Z,77.19
2023-02-11T20:03:43.533Z,78.29
2023-02-11T20:06:14.877Z,79.45
2023-02-11T20:08:44.729Z,79.74
2023-02-11T20:11:16.033Z,80.59
2023-02-11T20:13:44.605Z,80.34
2023-02-11T20:16:16.749Z,79.37
2023-02-11T20:18:46.810Z,78.63
2023-02-11T20:21:22.126Z,75.29
2023-02-11T20:23:51.331Z,76.16
2023-02-11T20:26:21.658Z,77.22
2023-02-11T20:28:52.295Z,76.72
2023-02-11T20:31:24.372Z,77.27
2023-02-11T20:33:56.622Z,80.28
2023-02-11T20:36:39.360Z,81.74
2023-02-11T20:39:11.260Z,82.50
2023-02-11T20:41:40.239Z,83.20
2023-02-11T20:44:10.986Z,83.55
2023-02-11T20:46:46.633Z,83.65
2023-02-11T20:49:19.250Z,83.03
2023-02-11T20:51:49.534Z,80.48
2023-02-11T20:54:20.571Z,81.67
2023-02-11T20:56:51.300Z,81.68
2023-02-11T20:59:22.754Z,81.62
2023-02-11T21:01:55.124Z,81.57
2023-02-11T21:04:29.821Z,80.32
2023-02-11T21:07:01.823Z,80.99
2023-02-11T21:09:33.060Z,79.06
2023-02-11T21:12:04.553Z,79.83
2023-02-11T21:14:34.277Z,79.72
2023-02-11T21:17:02.951Z,81.68
2023-02-11T21:19:33.806Z,82.06
2023-02-11T21:22:03.665Z,82.10
2023-02-11T21:24:32.192Z,82.00
2023-02-11T21:27:01.080Z,82.90
2023-02-11T21:29:30.522Z,80.17
2023-02-11T21:31:59.391Z,78.63
2023-02-11T21:34:29.321Z,78.38
2023-02-11T21:36:58.388Z,78.43
2023-02-11T21:39:26.757Z,76.37
2023-02-11T21:41:56.166Z,74.32
2023-02-11T21:44:24.658Z,74.57
2023-02-11T21:46:53.303Z,73.33
2023-02-11T21:49:21.602Z,74.82
2023-02-11T21:51:49.992Z,75.69
2023-02-11T21:54:19.180Z,78.49
2023-02-11T21:56:50.387Z,76.37
2023-02-11T21:59:18.806Z,76.34
2023-02-11T22:01:47.318Z,77.54
2023-02-11T22:04:15.700Z,76.17
2023-02-11T22:06:45.168Z,76.38
2023-02-11T22:09:13.557Z,74.24
2023-02-11T22:11:41.841Z,74.82
2023-02-11T22:14:10.305Z,74.46
2023-02-11T22:16:38.959Z,73.02
2023-02-11T22:19:07.924Z,73.70
2023-02-11T22:21:36.809Z,72.87
2023-02-11T22:24:05.865Z,73.22
2023-02-11T22:26:34.253Z,74.95
2023-02-11T22:29:02.738Z,74.61
2023-02-11T22:31:33.485Z,76.11
2023-02-11T22:34:03.855Z,74.89
2023-02-11T22:36:37.692Z,75.38
2023-02-11T22:39:12.618Z,74.16
2023-02-11T22:41:42.281Z,71.88
2023-02-11T22:44:10.711Z,72.90
2023-02-11T22:46:39.636Z,73.76
2023-02-11T22:49:07.969Z,70.07
2023-02-11T22:51:36.452Z,70.50
2023-02-11T22:54:07.446Z,69.72
2023-02-11T22:56:36.281Z,70.20
2023-02-11T22:59:07.728Z,66.87
2023-02-11T23:01:36.294Z,68.60
2023-02-11T23:04:06.695Z,70.00
2023-02-11T23:06:35.542Z,67.76
2023-02-11T23:09:05.705Z,69.49
2023-02-11T23:11:34.551Z,68.80
2023-02-11T23:14:03.635Z,66.73
2023-02-11T23:16:34.767Z,70.80
2023-02-11T23:19:07.658Z,72.86
2023-02-11T23:21:38.567Z,70.68
2023-02-11T23:24:12.609Z,70.19
2023-02-11T23:26:42.627Z,71.74
2023-02-11T23:29:11.416Z,72.68
2023-02-11T23:31:43.604Z,70.87
2023-02-11T23:34:17.360Z,70.41
2023-02-11T23:36:45.970Z,73.69
2023-02-11T23:39:17.143Z,75.28
2023-02-11T23:41:46.223Z,74.55
2023-02-11T23:44:14.594Z,73.72
2023-02-11T23:46:43.197Z,73.43
2023-02-11T23:49:11.662Z,77.18
2023-02-11T23:51:40.161Z,80.35
2023-02-11T23:54:14.661Z,81.64
2023-02-11T23:56:42.954Z,82.66
2023-02-11T23:59:11.934Z,83.14
